PST,Max TemperatureF,Mean TemperatureF,Min TemperatureF,Max Dew PointF,MeanDew PointF,Min DewpointF,Max Humidity, Mean Humidity, Min Humidity, Max Sea Level PressureIn, Mean Sea Level PressureIn, Min Sea Level PressureIn, Max VisibilityMiles, Mean VisibilityMiles, Min VisibilityMiles, Max Wind SpeedMPH, Mean Wind SpeedMPH, Max Gust SpeedMPH,PrecipitationIn, CloudCover, Events, WindDirDegrees
2013-1-1,55,44,32,41,36,30,100,84,38,30.30,30.26,30.22,10,8,0,14,3,16,0.00,1,Fog,118
2013-1-2,53,42,32,37,35,32,100,81,44,30.26,30.21,30.16,10,10,10,9,5,,0.00,0,,184
2013-1-3,53,42,30,41,36,30,100,87,51,30.29,30.24,30.19,10,10,4,8,4,,0.00,0,,185
2013-1-4,53,42,32,43,37,32,100,86,54,30.32,30.26,30.20,10,9,1,9,2,,0.00,0,,187
2013-1-5,48,40,33,46,42,34,100,98,87,30.27,30.19,30.09,10,5,0,9,3,,0.05,5,Rain,166
2013-1-6,51,48,44,48,45,45,100,98,87,30.20,30.15,30.09,0,0,0,10,2,,0.01,,Fog-Rain,349
2013-1-7,59,49,39,50,46,39,100,92,67,30.28,30.20,30.17,10,9,2,9,2,,0.00,0,,164
2013-1-8,55,44,33,50,43,34,100,95,77,30.27,30.20,30.16,10,5,0,7,3,,0.00,1,Fog,170
2013-1-9,53,45,37,54,41,34,100,90,62,30.17,30.08,30.00,10,5,0,22,6,33,0.00,3,Fog-Rain,285
2013-1-10,51,42,33,37,34,30,100,71,44,30.20,30.13,30.08,10,10,10,20,8,28,0.00,0,,323
2013-1-11,51,43,35,41,36,28,100,76,57,30.27,30.19,30.13,10,10,10,17,10,23,0.00,0,,327
2013-1-12,50,40,30,37,31,21,100,79,32,30.27,30.21,30.16,10,10,10,7,1,,0.00,1,,163
2013-1-13,50,37,24,36,28,10,100,76,23,30.30,30.23,30.20,10,10,10,16,2,23,0.00,0,,348
2013-1-14,51,40,28,34,24,12,93,57,28,30.42,30.36,30.25,10,10,10,10,5,,0.00,0,,190
2013-1-15,50,38,26,37,32,27,100,83,43,30.51,30.46,30.41,10,9,0,6,1,,0.00,0,Fog,174
2013-1-16,55,40,26,39,34,27,100,86,41,30.47,30.38,30.29,10,8,2,8,1,,0.00,0,,176
2013-1-17,57,42,26,41,34,27,100,87,48,30.30,30.25,30.18,10,7,0,10,2,,0.00,0,Fog,187
2013-1-18,59,47,35,41,38,36,100,77,44,30.26,30.20,30.16,10,10,8,13,8,,0.00,0,,201
2013-1-19,59,44,30,41,37,30,100,76,45,30.28,30.22,30.18,10,10,9,13,4,,0.00,0,,196
2013-1-20,59,44,28,37,34,28,100,77,36,30.26,30.21,30.15,10,10,2,12,2,,0.00,0,,181
2013-1-21,62,45,28,41,38,28,100,79,45,30.21,30.16,30.11,10,10,2,12,5,,0.00,0,,192
2013-1-22,57,47,37,45,41,37,100,75,48,30.14,30.09,30.02,10,9,7,13,7,,0.00,0,,203
2013-1-23,51,48,46,50,47,41,100,91,71,30.12,30.05,29.98,10,6,1,10,5,,0.08,5,Rain,200
2013-1-24,57,52,46,55,51,46,100,99,88,30.21,30.15,30.09,10,6,1,7,3,,0.00,7,,173
2013-1-25,62,53,44,59,52,45,100,95,72,30.21,30.13,30.06,10,7,0,14,2,,0.00,4,Fog,345
2013-1-26,57,52,46,50,44,37,100,79,54,30.08,30.03,29.99,10,9,0,23,6,29,0.00,1,Fog,285
2013-1-27,55,46,37,41,37,34,100,67,44,30.19,30.14,30.08,10,10,10,16,9,21,0.00,0,,312
2013-1-28,59,52,44,45,40,36,82,69,48,30.29,30.23,30.17,10,10,10,18,12,26,0.00,0,,307
2013-1-29,60,51,42,46,42,37,93,71,45,30.37,30.31,30.27,10,10,10,14,8,22,0.00,0,,323
2013-1-30,64,50,37,46,43,37,100,83,42,30.36,30.30,30.27,10,10,9,6,1,,0.00,0,,139
2013-1-31,64,50,35,48,42,36,100,88,52,30.32,30.26,30.20,10,7,0,7,1,,0.00,0,Fog,151